sensor_id;sensor_type;location;lat;lon;timestamp;pressure;altitude;pressure_sealevel;temperature;humidity
42771;BME280;28426;42.872;25.314;2024-03-06T00:01:39;96737.25;;;5.62;100.00
42771;BME280;28426;42.872;25.314;2024-03-06T00:04:09;96741.91;;;5.69;100.00
42771;BME280;28426;42.872;25.314;2024-03-06T00:06:43;96740.56;;;5.73;100.00
42771;BME280;28426;42.872;25.314;2024-03-06T00:09:13;96742.06;;;5.75;100.00
42771;BME280;28426;42.872;25.314;2024-03-06T00:11:44;96737.44;;;5.78;100.00
42771;BME280;28426;42.872;25.314;2024-03-06T00:14:15;96737.28;;;5.79;100.00
42771;BME280;28426;42.872;25.314;2024-03-06T00:16:48;96737.13;;;5.81;100.00
42771;BME280;28426;42.872;25.314;2024-03-06T00:19:20;96734.13;;;5.84;100.00
42771;BME280;28426;42.872;25.314;2024-03-06T00:21:50;96736.59;;;5.85;100.00
42771;BME280;28426;42.872;25.314;2024-03-06T00:24:21;96741.91;;;5.85;100.00
42771;BME280;28426;42.872;25.314;2024-03-06T00:26:52;96745.22;;;5.87;99.69
42771;BME280;28426;42.872;25.314;2024-03-06T00:29:22;96747.72;;;5.89;99.36
42771;BME280;28426;42.872;25.314;2024-03-06T00:31:58;96749.22;;;5.92;99.05
42771;BME280;28426;42.872;25.314;2024-03-06T00:34:29;96741.06;;;5.93;98.98
42771;BME280;28426;42.872;25.314;2024-03-06T00:37:00;96747.22;;;5.94;98.44
42771;BME280;28426;42.872;25.314;2024-03-06T00:39:31;96742.75;;;5.94;98.30
42771;BME280;28426;42.872;25.314;2024-03-06T00:42:02;96747.22;;;5.94;98.34
42771;BME280;28426;42.872;25.314;2024-03-06T00:44:33;96742.75;;;5.94;98.29
42771;BME280;28426;42.872;25.314;2024-03-06T00:47:06;96744.56;;;5.94;98.29
42771;BME280;28426;42.872;25.314;2024-03-06T00:49:37;96742.59;;;5.96;97.98
42771;BME280;28426;42.872;25.314;2024-03-06T00:52:09;96738.94;;;5.97;98.12
42771;BME280;28426;42.872;25.314;2024-03-06T00:54:40;96749.53;;;5.97;97.82
42771;BME280;28426;42.872;25.314;2024-03-06T00:57:11;96740.59;;;5.98;97.56
42771;BME280;28426;42.872;25.314;2024-03-06T00:59:42;96740.59;;;5.98;97.02
42771;BME280;28426;42.872;25.314;2024-03-06T01:02:15;96754.00;;;5.96;97.16
42771;BME280;28426;42.872;25.314;2024-03-06T01:04:46;96760.47;;;5.94;97.18
42771;BME280;28426;42.872;25.314;2024-03-06T01:07:16;96755.31;;;5.92;96.89
42771;BME280;28426;42.872;25.314;2024-03-06T01:09:47;96750.38;;;5.89;97.09
42771;BME280;28426;42.872;25.314;2024-03-06T01:12:18;96757.63;;;5.87;97.04
42771;BME280;28426;42.872;25.314;2024-03-06T01:14:49;96748.03;;;5.86;96.87
42771;BME280;28426;42.872;25.314;2024-03-06T01:17:22;96760.44;;;5.85;97.13
42771;BME280;28426;42.872;25.314;2024-03-06T01:19:53;96756.78;;;5.86;97.01
42771;BME280;28426;42.872;25.314;2024-03-06T01:22:24;96761.13;;;5.87;97.04
42771;BME280;28426;42.872;25.314;2024-03-06T01:24:55;96762.78;;;5.88;97.02
42771;BME280;28426;42.872;25.314;2024-03-06T01:27:25;96771.72;;;5.87;96.93
42771;BME280;28426;42.872;25.314;2024-03-06T01:29:56;96773.38;;;5.88;96.82
42771;BME280;28426;42.872;25.314;2024-03-06T01:32:29;96776.00;;;5.88;96.86
42771;BME280;28426;42.872;25.314;2024-03-06T01:35:01;96775.84;;;5.90;97.04
42771;BME280;28426;42.872;25.314;2024-03-06T01:37:32;96769.72;;;5.89;96.84
42771;BME280;28426;42.872;25.314;2024-03-06T01:40:04;96775.00;;;5.89;96.48
42771;BME280;28426;42.872;25.314;2024-03-06T01:42:36;96777.50;;;5.91;96.72
42771;BME280;28426;42.872;25.314;2024-03-06T01:45:08;96774.00;;;5.91;96.63
42771;BME280;28426;42.872;25.314;2024-03-06T01:47:42;96777.50;;;5.91;96.45
42771;BME280;28426;42.872;25.314;2024-03-06T01:50:13;96783.63;;;5.92;96.50
42771;BME280;28426;42.872;25.314;2024-03-06T01:52:44;96778.34;;;5.92;96.25
42771;BME280;28426;42.872;25.314;2024-03-06T01:55:16;96774.69;;;5.93;96.36
42771;BME280;28426;42.872;25.314;2024-03-06T01:57:48;96776.34;;;5.94;96.05
42771;BME280;28426;42.872;25.314;2024-03-06T02:00:19;96775.34;;;5.95;95.97
42771;BME280;28426;42.872;25.314;2024-03-06T02:02:53;96779.69;;;5.96;95.95
42771;BME280;28426;42.872;25.314;2024-03-06T02:05:23;96779.47;;;5.97;95.94
42771;BME280;28426;42.872;25.314;2024-03-06T02:07:54;96784.63;;;5.99;95.63
42771;BME280;28426;42.872;25.314;2024-03-06T02:10:27;96776.69;;;5.99;95.57
42771;BME280;28426;42.872;25.314;2024-03-06T02:12:58;96778.53;;;5.98;95.59
42771;BME280;28426;42.872;25.314;2024-03-06T02:15:29;96776.53;;;6.00;95.53
42771;BME280;28426;42.872;25.314;2024-03-06T02:18:07;96779.00;;;6.02;95.38
42771;BME280;28426;42.872;25.314;2024-03-06T02:20:41;96786.00;;;6.03;95.25
42771;BME280;28426;42.872;25.314;2024-03-06T02:23:13;96786.81;;;6.04;95.36
42771;BME280;28426;42.872;25.314;2024-03-06T02:25:45;96787.47;;;6.06;95.26
42771;BME280;28426;42.872;25.314;2024-03-06T02:28:16;96785.66;;;6.06;94.96
42771;BME280;28426;42.872;25.314;2024-03-06T02:30:50;96790.97;;;6.06;94.91
42771;BME280;28426;42.872;25.314;2024-03-06T02:33:20;96790.97;;;6.06;94.81
42771;BME280;28426;42.872;25.314;2024-03-06T02:35:54;96790.97;;;6.06;94.84
42771;BME280;28426;42.872;25.314;2024-03-06T02:38:24;96789.13;;;6.07;94.33
42771;BME280;28426;42.872;25.314;2024-03-06T02:40:55;96796.09;;;6.08;94.27
42771;BME280;28426;42.872;25.314;2024-03-06T02:43:27;96799.56;;;6.08;94.36
42771;BME280;28426;42.872;25.314;2024-03-06T02:45:57;96800.56;;;6.07;94.53
42771;BME280;28426;42.872;25.314;2024-03-06T02:48:28;96802.56;;;6.05;94.29
42771;BME280;28426;42.872;25.314;2024-03-06T02:51:01;96797.25;;;6.05;94.37
42771;BME280;28426;42.872;25.314;2024-03-06T02:53:32;96797.06;;;6.07;94.31
42771;BME280;28426;42.872;25.314;2024-03-06T02:56:03;96799.72;;;6.07;94.28
42771;BME280;28426;42.872;25.314;2024-03-06T02:58:35;96797.41;;;6.04;94.26
42771;BME280;28426;42.872;25.314;2024-03-06T03:01:05;96794.91;;;6.02;94.08
42771;BME280;28426;42.872;25.314;2024-03-06T03:03:36;96800.34;;;6.00;94.15
42771;BME280;28426;42.872;25.314;2024-03-06T03:06:10;96799.72;;;5.98;93.98
42771;BME280;28426;42.872;25.314;2024-03-06T03:08:41;96805.16;;;5.97;94.10
42771;BME280;28426;42.872;25.314;2024-03-06T03:11:11;96796.53;;;5.95;93.88
42771;BME280;28426;42.872;25.314;2024-03-06T03:13:43;96805.47;;;5.94;94.09
42771;BME280;28426;42.872;25.314;2024-03-06T03:16:17;96801.19;;;5.93;93.85
42771;BME280;28426;42.872;25.314;2024-03-06T03:18:48;96796.69;;;5.93;94.44
42771;BME280;28426;42.872;25.314;2024-03-06T03:21:22;96797.53;;;5.94;94.54
42771;BME280;28426;42.872;25.314;2024-03-06T03:23:52;96800.88;;;5.96;94.56
42771;BME280;28426;42.872;25.314;2024-03-06T03:26:23;96805.16;;;5.97;94.30
42771;BME280;28426;42.872;25.314;2024-03-06T03:28:53;96804.16;;;5.98;94.21
42771;BME280;28426;42.872;25.314;2024-03-06T03:31:24;96806.66;;;5.99;94.25
42771;BME280;28426;42.872;25.314;2024-03-06T03:33:55;96808.47;;;5.99;94.18
42771;BME280;28426;42.872;25.314;2024-03-06T03:36:28;96809.16;;;6.01;94.05
42771;BME280;28426;42.872;25.314;2024-03-06T03:38:59;96811.78;;;6.01;94.15
42771;BME280;28426;42.872;25.314;2024-03-06T03:41:30;96816.09;;;6.02;93.92
42771;BME280;28426;42.872;25.314;2024-03-06T03:44:00;96811.78;;;6.01;93.67
42771;BME280;28426;42.872;25.314;2024-03-06T03:46:31;96808.97;;;6.02;93.44
42771;BME280;28426;42.872;25.314;2024-03-06T03:49:02;96816.09;;;6.02;93.67
42771;BME280;28426;42.872;25.314;2024-03-06T03:51:35;96820.72;;;6.00;93.42
42771;BME280;28426;42.872;25.314;2024-03-06T03:54:06;96825.19;;;5.99;93.39
42771;BME280;28426;42.872;25.314;2024-03-06T03:56:37;96823.53;;;5.98;93.63
42771;BME280;28426;42.872;25.314;2024-03-06T03:59:08;96827.84;;;5.99;93.47
42771;BME280;28426;42.872;25.314;2024-03-06T04:01:38;96828.66;;;6.00;93.56
42771;BME280;28426;42.872;25.314;2024-03-06T04:04:09;96829.50;;;6.00;93.76
42771;BME280;28426;42.872;25.314;2024-03-06T04:06:42;96843.75;;;5.99;93.35
42771;BME280;28426;42.872;25.314;2024-03-06T04:09:13;96833.94;;;6.00;93.51
42771;BME280;28426;42.872;25.314;2024-03-06T04:11:43;96837.59;;;5.99;93.22
42771;BME280;28426;42.872;25.314;2024-03-06T04:14:14;96841.91;;;6.00;93.08
42771;BME280;28426;42.872;25.314;2024-03-06T04:16:46;96845.38;;;6.00;93.28
42771;BME280;28426;42.872;25.314;2024-03-06T04:19:17;96843.56;;;6.01;93.18
42771;BME280;28426;42.872;25.314;2024-03-06T04:21:50;96853.19;;;6.02;93.14
42771;BME280;28426;42.872;25.314;2024-03-06T04:24:21;96850.53;;;6.02;93.05
42771;BME280;28426;42.872;25.314;2024-03-06T04:26:52;96856.81;;;6.01;92.74
42771;BME280;28426;42.872;25.314;2024-03-06T04:29:22;96856.97;;;5.99;92.99
42771;BME280;28426;42.872;25.314;2024-03-06T04:31:53;96848.19;;;5.99;92.59
42771;BME280;28426;42.872;25.314;2024-03-06T04:34:24;96849.19;;;5.98;92.34
42771;BME280;28426;42.872;25.314;2024-03-06T04:36:57;96850.84;;;5.99;92.85
42771;BME280;28426;42.872;25.314;2024-03-06T04:39:28;96853.50;;;5.99;92.63
42771;BME280;28426;42.872;25.314;2024-03-06T04:41:58;96853.50;;;5.99;92.85
42771;BME280;28426;42.872;25.314;2024-03-06T04:44:29;96848.19;;;5.99;92.58
42771;BME280;28426;42.872;25.314;2024-03-06T04:47:00;96849.03;;;5.99;92.74
42771;BME280;28426;42.872;25.314;2024-03-06T04:49:33;96849.84;;;6.00;92.61
42771;BME280;28426;42.872;25.314;2024-03-06T04:52:07;96857.97;;;5.98;92.22
42771;BME280;28426;42.872;25.314;2024-03-06T04:54:37;96851.84;;;5.98;92.49
42771;BME280;28426;42.872;25.314;2024-03-06T04:57:08;96864.09;;;5.99;92.46
42771;BME280;28426;42.872;25.314;2024-03-06T04:59:38;96864.94;;;5.99;92.34
42771;BME280;28426;42.872;25.314;2024-03-06T05:02:09;96856.97;;;5.99;92.27
42771;BME280;28426;42.872;25.314;2024-03-06T05:04:40;96865.72;;;6.00;92.05
42771;BME280;28426;42.872;25.314;2024-03-06T05:07:27;96861.28;;;6.00;92.46
42771;BME280;28426;42.872;25.314;2024-03-06T05:10:12;96865.72;;;6.00;92.07
42771;BME280;28426;42.872;25.314;2024-03-06T05:12:57;96870.22;;;5.99;92.30
42771;BME280;28426;42.872;25.314;2024-03-06T05:15:41;96871.03;;;6.00;91.92
42771;BME280;28426;42.872;25.314;2024-03-06T05:18:26;96876.31;;;6.00;92.18
42771;BME280;28426;42.872;25.314;2024-03-06T05:21:10;96876.31;;;6.00;91.83
42771;BME280;28426;42.872;25.314;2024-03-06T05:23:57;96881.63;;;6.00;92.04
42771;BME280;28426;42.872;25.314;2024-03-06T05:26:42;96881.63;;;6.00;91.81
42771;BME280;28426;42.872;25.314;2024-03-06T05:29:26;96883.47;;;5.99;92.09
42771;BME280;28426;42.872;25.314;2024-03-06T05:32:11;96889.75;;;5.98;91.51
42771;BME280;28426;42.872;25.314;2024-03-06T05:34:55;96890.06;;;5.95;91.64
42771;BME280;28426;42.872;25.314;2024-03-06T05:37:40;96898.88;;;5.96;91.89
42771;BME280;28426;42.872;25.314;2024-03-06T05:40:27;96903.97;;;5.97;91.87
42771;BME280;28426;42.872;25.314;2024-03-06T05:43:12;96902.16;;;5.98;91.72
42771;BME280;28426;42.872;25.314;2024-03-06T05:45:56;96905.81;;;5.97;91.88
42771;BME280;28426;42.872;25.314;2024-03-06T05:48:41;96914.75;;;5.96;91.55
42771;BME280;28426;42.872;25.314;2024-03-06T05:51:26;96921.00;;;5.95;91.98
42771;BME280;28426;42.872;25.314;2024-03-06T05:54:10;96923.00;;;5.93;91.92
42771;BME280;28426;42.872;25.314;2024-03-06T05:56:57;96918.72;;;5.92;91.96
42771;BME280;28426;42.872;25.314;2024-03-06T05:59:41;96928.31;;;5.93;91.94
42771;BME280;28426;42.872;25.314;2024-03-06T06:02:12;96926.66;;;5.92;92.01
42771;BME280;28426;42.872;25.314;2024-03-06T06:04:43;96933.59;;;5.93;91.91
42771;BME280;28426;42.872;25.314;2024-03-06T06:07:31;96930.94;;;5.93;92.16
42771;BME280;28426;42.872;25.314;2024-03-06T06:10:01;96929.97;;;5.94;91.93
42771;BME280;28426;42.872;25.314;2024-03-06T06:12:36;96928.97;;;5.95;92.07
42771;BME280;28426;42.872;25.314;2024-03-06T06:15:08;96923.66;;;5.95;91.88
42771;BME280;28426;42.872;25.314;2024-03-06T06:17:39;96916.41;;;5.97;91.94
42771;BME280;28426;42.872;25.314;2024-03-06T06:20:11;96930.31;;;5.99;91.83
42771;BME280;28426;42.872;25.314;2024-03-06T06:22:44;96924.00;;;6.00;91.96
42771;BME280;28426;42.872;25.314;2024-03-06T06:25:15;96926.66;;;6.00;91.59
42771;BME280;28426;42.872;25.314;2024-03-06T06:27:48;96925.00;;;5.99;91.49
42771;BME280;28426;42.872;25.314;2024-03-06T06:30:19;96928.50;;;5.99;91.28
42771;BME280;28426;42.872;25.314;2024-03-06T06:32:49;96929.31;;;6.00;91.52
42771;BME280;28426;42.872;25.314;2024-03-06T06:35:20;96932.63;;;6.02;91.30
42771;BME280;28426;42.872;25.314;2024-03-06T06:37:52;96933.63;;;6.01;91.43
42771;BME280;28426;42.872;25.314;2024-03-06T06:40:23;96928.34;;;6.01;91.18
42771;BME280;28426;42.872;25.314;2024-03-06T06:43:01;96931.00;;;6.01;91.36
42771;BME280;28426;42.872;25.314;2024-03-06T06:45:32;96932.63;;;6.02;91.56
42771;BME280;28426;42.872;25.314;2024-03-06T06:48:03;96929.88;;;6.04;91.79
42771;BME280;28426;42.872;25.314;2024-03-06T06:50:33;96938.47;;;6.06;91.74
42771;BME280;28426;42.872;25.314;2024-03-06T06:53:04;96933.00;;;6.07;91.93
42771;BME280;28426;42.872;25.314;2024-03-06T06:55:35;96936.34;;;6.09;91.64
42771;BME280;28426;42.872;25.314;2024-03-06T06:58:09;96936.84;;;6.13;91.87
42771;BME280;28426;42.872;25.314;2024-03-06T07:00:39;96936.69;;;6.14;91.88
42771;BME280;28426;42.872;25.314;2024-03-06T07:03:10;96935.69;;;6.15;91.59
42771;BME280;28426;42.872;25.314;2024-03-06T07:05:41;96937.34;;;6.17;91.62
42771;BME280;28426;42.872;25.314;2024-03-06T07:08:12;96943.34;;;6.19;91.69
42771;BME280;28426;42.872;25.314;2024-03-06T07:10:42;96948.28;;;6.22;91.46
42771;BME280;28426;42.872;25.314;2024-03-06T07:13:16;96948.13;;;6.23;91.59
42771;BME280;28426;42.872;25.314;2024-03-06T07:15:47;96952.28;;;6.26;91.48
42771;BME280;28426;42.872;25.314;2024-03-06T07:18:18;96959.91;;;6.29;91.46
42771;BME280;28426;42.872;25.314;2024-03-06T07:20:48;96957.91;;;6.31;91.30
42771;BME280;28426;42.872;25.314;2024-03-06T07:23:19;96961.25;;;6.33;91.42
42771;BME280;28426;42.872;25.314;2024-03-06T07:25:50;96953.97;;;6.35;91.15
42771;BME280;28426;42.872;25.314;2024-03-06T07:28:24;96952.78;;;6.38;91.38
42771;BME280;28426;42.872;25.314;2024-03-06T07:30:54;96955.97;;;6.41;91.30
42771;BME280;28426;42.872;25.314;2024-03-06T07:33:25;96955.81;;;6.43;90.93
42771;BME280;28426;42.872;25.314;2024-03-06T07:35:56;96957.31;;;6.46;91.06
42771;BME280;28426;42.872;25.314;2024-03-06T07:38:27;96950.00;;;6.48;91.13
42771;BME280;28426;42.872;25.314;2024-03-06T07:40:57;96960.16;;;6.52;91.05
42771;BME280;28426;42.872;25.314;2024-03-06T07:43:31;96958.00;;;6.56;90.84
42771;BME280;28426;42.872;25.314;2024-03-06T07:46:01;96948.03;;;6.58;91.06
42771;BME280;28426;42.872;25.314;2024-03-06T07:48:41;96955.50;;;6.63;90.63
42771;BME280;28426;42.872;25.314;2024-03-06T07:51:12;96958.00;;;6.64;90.69
42771;BME280;28426;42.872;25.314;2024-03-06T07:53:42;96965.59;;;6.67;90.24
42771;BME280;28426;42.872;25.314;2024-03-06T07:56:13;96956.69;;;6.69;90.15
42771;BME280;28426;42.872;25.314;2024-03-06T07:58:47;96950.22;;;6.71;90.17
42771;BME280;28426;42.872;25.314;2024-03-06T08:01:18;96952.38;;;6.76;90.64
42771;BME280;28426;42.872;25.314;2024-03-06T08:03:49;96948.38;;;6.80;90.35
42771;BME280;28426;42.872;25.314;2024-03-06T08:06:21;96948.72;;;6.85;90.41
42771;BME280;28426;42.872;25.314;2024-03-06T08:08:52;96956.84;;;6.92;90.63
42771;BME280;28426;42.872;25.314;2024-03-06T08:11:25;96961.66;;;6.97;90.19
42771;BME280;28426;42.872;25.314;2024-03-06T08:14:00;96958.19;;;6.96;90.03
42771;BME280;28426;42.872;25.314;2024-03-06T08:16:31;96967.97;;;7.04;89.58
42771;BME280;28426;42.872;25.314;2024-03-06T08:19:03;96972.94;;;7.07;89.68
42771;BME280;28426;42.872;25.314;2024-03-06T08:21:34;96970.59;;;7.12;89.35
42771;BME280;28426;42.872;25.314;2024-03-06T08:24:05;96968.97;;;7.11;89.09
42771;BME280;28426;42.872;25.314;2024-03-06T08:26:36;96970.28;;;7.15;88.73
42771;BME280;28426;42.872;25.314;2024-03-06T08:29:09;96976.28;;;7.17;88.43
42771;BME280;28426;42.872;25.314;2024-03-06T08:31:40;96969.97;;;7.18;88.77
42771;BME280;28426;42.872;25.314;2024-03-06T08:34:11;96972.94;;;7.24;89.02
42771;BME280;28426;42.872;25.314;2024-03-06T08:36:41;96970.59;;;7.29;89.04
42771;BME280;28426;42.872;25.314;2024-03-06T08:39:12;96969.94;;;7.35;88.97
42771;BME280;28426;42.872;25.314;2024-03-06T08:41:45;96970.09;;;7.42;89.01
42771;BME280;28426;42.872;25.314;2024-03-06T08:44:18;96971.94;;;7.50;88.95
42771;BME280;28426;42.872;25.314;2024-03-06T08:46:49;96974.91;;;7.55;88.58
42771;BME280;28426;42.872;25.314;2024-03-06T08:49:19;96973.72;;;7.57;88.78
42771;BME280;28426;42.872;25.314;2024-03-06T08:51:50;96974.22;;;7.61;88.56
42771;BME280;28426;42.872;25.314;2024-03-06T08:54:21;96980.19;;;7.63;88.28
42771;BME280;28426;42.872;25.314;2024-03-06T08:56:52;96990.81;;;7.63;87.92
42771;BME280;28426;42.872;25.314;2024-03-06T08:59:28;96982.16;;;7.61;87.47
42771;BME280;28426;42.872;25.314;2024-03-06T09:02:12;96992.16;;;7.59;87.21
42771;BME280;28426;42.872;25.314;2024-03-06T09:04:43;96985.19;;;7.58;87.07
42771;BME280;28426;42.872;25.314;2024-03-06T09:07:14;96990.81;;;7.55;86.60
42771;BME280;28426;42.872;25.314;2024-03-06T09:09:46;96995.66;;;7.51;86.40
42771;BME280;28426;42.872;25.314;2024-03-06T09:12:17;96988.19;;;7.46;86.07
42771;BME280;28426;42.872;25.314;2024-03-06T09:14:50;96988.34;;;7.45;86.29
42771;BME280;28426;42.872;25.314;2024-03-06T09:17:21;96991.16;;;7.43;86.49
42771;BME280;28426;42.872;25.314;2024-03-06T09:19:52;97000.13;;;7.42;86.62
42771;BME280;28426;42.872;25.314;2024-03-06T09:22:36;96993.00;;;7.43;86.56
42771;BME280;28426;42.872;25.314;2024-03-06T09:25:08;96999.13;;;7.43;86.74
42771;BME280;28426;42.872;25.314;2024-03-06T09:27:43;96996.47;;;7.43;87.09
42771;BME280;28426;42.872;25.314;2024-03-06T09:30:16;96995.50;;;7.44;87.11
42771;BME280;28426;42.872;25.314;2024-03-06T09:32:47;96995.31;;;7.46;87.03
42771;BME280;28426;42.872;25.314;2024-03-06T09:35:19;96991.84;;;7.45;86.99
42771;BME280;28426;42.872;25.314;2024-03-06T09:37:50;96994.66;;;7.44;86.63
42771;BME280;28426;42.872;25.314;2024-03-06T09:40:22;96993.81;;;7.43;86.71
42771;BME280;28426;42.872;25.314;2024-03-06T09:42:53;96996.31;;;7.45;86.96
42771;BME280;28426;42.872;25.314;2024-03-06T09:45:26;96987.84;;;7.50;87.20
42771;BME280;28426;42.872;25.314;2024-03-06T09:47:57;96992.47;;;7.56;87.64
42771;BME280;28426;42.872;25.314;2024-03-06T09:50:29;96990.47;;;7.66;87.84
42771;BME280;28426;42.872;25.314;2024-03-06T09:53:05;96988.09;;;7.80;87.92
42771;BME280;28426;42.872;25.314;2024-03-06T09:55:39;96985.75;;;7.93;87.93
42771;BME280;28426;42.872;25.314;2024-03-06T09:58:11;96980.06;;;8.05;87.53
42771;BME280;28426;42.872;25.314;2024-03-06T10:00:44;96986.00;;;8.15;87.07
42771;BME280;28426;42.872;25.314;2024-03-06T10:03:15;96992.75;;;8.26;86.97
42771;BME280;28426;42.872;25.314;2024-03-06T10:05:45;96990.25;;;8.33;86.24
42771;BME280;28426;42.872;25.314;2024-03-06T10:08:16;96994.22;;;8.37;85.80
42771;BME280;28426;42.872;25.314;2024-03-06T10:10:47;96990.53;;;8.38;84.66
42771;BME280;28426;42.872;25.314;2024-03-06T10:13:18;96999.69;;;8.35;83.89
42771;BME280;28426;42.872;25.314;2024-03-06T10:15:59;96999.41;;;8.30;83.83
42771;BME280;28426;42.872;25.314;2024-03-06T10:18:31;96986.59;;;8.25;83.38
42771;BME280;28426;42.872;25.314;2024-03-06T10:21:01;96985.31;;;8.21;83.02
42771;BME280;28426;42.872;25.314;2024-03-06T10:23:34;96990.81;;;8.20;83.63
42771;BME280;28426;42.872;25.314;2024-03-06T10:26:07;96988.97;;;8.20;83.38
42771;BME280;28426;42.872;25.314;2024-03-06T10:28:45;96989.63;;;8.22;83.45
42771;BME280;28426;42.872;25.314;2024-03-06T10:31:26;96981.50;;;8.24;83.70
42771;BME280;28426;42.872;25.314;2024-03-06T10:33:57;96983.44;;;8.30;83.99
42771;BME280;28426;42.872;25.314;2024-03-06T10:36:31;96979.44;;;8.34;84.01
42771;BME280;28426;42.872;25.314;2024-03-06T10:39:03;96977.25;;;8.38;83.15
42771;BME280;28426;42.872;25.314;2024-03-06T10:41:35;96983.25;;;8.40;82.80
42771;BME280;28426;42.872;25.314;2024-03-06T10:44:11;96973.72;;;8.46;83.08
42771;BME280;28426;42.872;25.314;2024-03-06T10:46:47;96970.38;;;8.52;82.99
42771;BME280;28426;42.872;25.314;2024-03-06T10:49:21;96975.69;;;8.60;83.41
42771;BME280;28426;42.872;25.314;2024-03-06T10:51:54;96977.28;;;8.70;83.22
42771;BME280;28426;42.872;25.314;2024-03-06T10:54:28;96962.75;;;8.81;83.35
42771;BME280;28426;42.872;25.314;2024-03-06T10:57:02;96961.69;;;8.90;82.74
42771;BME280;28426;42.872;25.314;2024-03-06T10:59:35;96960.59;;;8.99;82.58
42771;BME280;28426;42.872;25.314;2024-03-06T11:02:10;96961.66;;;9.13;82.40
42771;BME280;28426;42.872;25.314;2024-03-06T11:04:41;96951.94;;;9.21;81.33
42771;BME280;28426;42.872;25.314;2024-03-06T11:07:12;96956.91;;;9.24;79.75
42771;BME280;28426;42.872;25.314;2024-03-06T11:09:43;96955.06;;;9.24;79.05
42771;BME280;28426;42.872;25.314;2024-03-06T11:12:33;96959.56;;;9.24;78.15
42771;BME280;28426;42.872;25.314;2024-03-06T11:15:14;96954.88;;;9.26;78.87
42771;BME280;28426;42.872;25.314;2024-03-06T11:17:47;96951.31;;;9.34;79.36
42771;BME280;28426;42.872;25.314;2024-03-06T11:20:19;96937.13;;;9.41;79.42
42771;BME280;28426;42.872;25.314;2024-03-06T11:23:02;96944.66;;;9.53;78.78
42771;BME280;28426;42.872;25.314;2024-03-06T11:25:59;96939.41;;;9.60;78.11
42771;BME280;28426;42.872;25.314;2024-03-06T11:28:33;96936.03;;;9.66;77.34
42771;BME280;28426;42.872;25.314;2024-03-06T11:31:06;96932.34;;;9.67;76.47
42771;BME280;28426;42.872;25.314;2024-03-06T11:33:43;96928.84;;;9.66;76.29
42771;BME280;28426;42.872;25.314;2024-03-06T11:36:16;96927.66;;;9.69;76.48
42771;BME280;28426;42.872;25.314;2024-03-06T11:38:52;96926.94;;;9.75;77.25
42771;BME280;28426;42.872;25.314;2024-03-06T11:41:24;96922.69;;;9.81;75.77
42771;BME280;28426;42.872;25.314;2024-03-06T11:43:58;96926.84;;;9.84;75.50
42771;BME280;28426;42.872;25.314;2024-03-06T11:46:42;96917.44;;;9.88;75.54
42771;BME280;28426;42.872;25.314;2024-03-06T11:49:18;96917.09;;;9.91;74.62
42771;BME280;28426;42.872;25.314;2024-03-06T11:51:49;96917.91;;;9.91;74.56
42771;BME280;28426;42.872;25.314;2024-03-06T11:54:20;96913.22;;;9.93;74.33
42771;BME280;28426;42.872;25.314;2024-03-06T11:56:55;96913.59;;;9.90;73.82
42771;BME280;28426;42.872;25.314;2024-03-06T11:59:27;96904.97;;;9.88;73.37
42771;BME280;28426;42.872;25.314;2024-03-06T12:01:59;96912.78;;;9.90;73.73
42771;BME280;28426;42.872;25.314;2024-03-06T12:04:35;96909.84;;;9.85;73.41
42771;BME280;28426;42.872;25.314;2024-03-06T12:07:07;96915.97;;;9.85;72.22
42771;BME280;28426;42.872;25.314;2024-03-06T12:09:38;96909.66;;;9.86;73.58
42771;BME280;28426;42.872;25.314;2024-03-06T12:12:10;96906.41;;;9.91;74.70
42771;BME280;28426;42.872;25.314;2024-03-06T12:14:41;96915.97;;;10.00;74.74
42771;BME280;28426;42.872;25.314;2024-03-06T12:17:13;96914.94;;;10.01;73.62
42771;BME280;28426;42.872;25.314;2024-03-06T12:19:48;96914.50;;;9.98;72.66
42771;BME280;28426;42.872;25.314;2024-03-06T12:22:25;96921.41;;;9.92;72.31
42771;BME280;28426;42.872;25.314;2024-03-06T12:24:59;96922.50;;;9.82;72.72
42771;BME280;28426;42.872;25.314;2024-03-06T12:27:31;96918.09;;;9.75;73.19
42771;BME280;28426;42.872;25.314;2024-03-06T12:30:09;96920.31;;;9.71;73.18
42771;BME280;28426;42.872;25.314;2024-03-06T12:32:41;96919.03;;;9.67;73.57
42771;BME280;28426;42.872;25.314;2024-03-06T12:35:24;96918.00;;;9.68;73.72
42771;BME280;28426;42.872;25.314;2024-03-06T12:37:54;96917.84;;;9.70;73.17
42771;BME280;28426;42.872;25.314;2024-03-06T12:40:25;96913.34;;;9.70;72.46
42771;BME280;28426;42.872;25.314;2024-03-06T12:42:56;96912.50;;;9.70;72.59
42771;BME280;28426;42.872;25.314;2024-03-06T12:45:26;96910.03;;;9.68;72.80
42771;BME280;28426;42.872;25.314;2024-03-06T12:47:57;96908.38;;;9.67;72.69
42771;BME280;28426;42.872;25.314;2024-03-06T12:50:31;96915.72;;;9.65;73.69
42771;BME280;28426;42.872;25.314;2024-03-06T12:53:02;96912.88;;;9.66;73.19
42771;BME280;28426;42.872;25.314;2024-03-06T12:55:33;96903.41;;;9.64;72.86
42771;BME280;28426;42.872;25.314;2024-03-06T12:58:04;96908.91;;;9.62;72.47
42771;BME280;28426;42.872;25.314;2024-03-06T13:00:35;96912.94;;;9.58;72.15
42771;BME280;28426;42.872;25.314;2024-03-06T13:03:06;96903.88;;;9.52;71.90
42771;BME280;28426;42.872;25.314;2024-03-06T13:05:40;96906.25;;;9.47;72.02
42771;BME280;28426;42.872;25.314;2024-03-06T13:08:11;96901.13;;;9.46;72.45
42771;BME280;28426;42.872;25.314;2024-03-06T13:10:44;96909.28;;;9.44;72.15
42771;BME280;28426;42.872;25.314;2024-03-06T13:13:15;96898.63;;;9.44;72.61
42771;BME280;28426;42.872;25.314;2024-03-06T13:15:46;96899.94;;;9.48;72.81
42771;BME280;28426;42.872;25.314;2024-03-06T13:18:16;96893.00;;;9.54;72.91
42771;BME280;28426;42.872;25.314;2024-03-06T13:20:50;96889.81;;;9.59;73.01
42771;BME280;28426;42.872;25.314;2024-03-06T13:23:21;96886.22;;;9.66;73.24
42771;BME280;28426;42.872;25.314;2024-03-06T13:25:52;96892.47;;;9.74;73.27
42771;BME280;28426;42.872;25.314;2024-03-06T13:28:23;96881.91;;;9.80;72.52
42771;BME280;28426;42.872;25.314;2024-03-06T13:30:53;96881.53;;;9.84;71.80